Archival Weather

Chicago O'Hare International

Chicago, Illinois (KORD)

Report from: Saturday, May 20, 2023 2:51 AM CDT
Current time: Sunday, February 25, 2024 4:44 PM CST

Current weather – Weather history – Daily summaries
Weather forecast

Temperature11.1°C (52.0°F)
Dew point4.4°C (39.9°F)
Winds 7 kts (3.6 m/s, 8.1 mph) Northwest (320°)
Visibility10 mi. (16.1 km)
Clouds Sky clear
Altimeter30.08 in.Hg (1019 mB)
Relative humidity63 %
Density altitude-516 ft. (-157 m)
Sea-level pressure101.8 kPa (1018 mB, 30.07 in.Hg)
Remarks Automated weather observing station with precipitation discriminator
Flight conditions Visual Meteorological Conditions
Raw dataKORD 200751Z 32007KT 10SM CLR 11/04 A3008 RMK AO2 SLP184 T01110044
An error has occurred. This application may no longer respond until reloaded. Reload 🗙